sensor_id;sensor_type;location;lat;lon;timestamp;P1;durP1;ratioP1;P2;durP2;ratioP2
13847;SDS011;6994;49.752;6.094;2024-01-30T00:01:14;20.15;;;15.95;;
13847;SDS011;6994;49.752;6.094;2024-01-30T00:03:41;17.45;;;13.40;;
13847;SDS011;6994;49.752;6.094;2024-01-30T00:06:08;16.52;;;11.85;;
13847;SDS011;6994;49.752;6.094;2024-01-30T00:08:36;16.77;;;11.93;;
13847;SDS011;6994;49.752;6.094;2024-01-30T00:11:03;17.17;;;11.82;;
13847;SDS011;6994;49.752;6.094;2024-01-30T00:13:30;14.68;;;10.93;;
13847;SDS011;6994;49.752;6.094;2024-01-30T00:15:58;13.88;;;10.38;;
13847;SDS011;6994;49.752;6.094;2024-01-30T00:18:25;18.48;;;12.50;;
13847;SDS011;6994;49.752;6.094;2024-01-30T00:20:52;30.48;;;14.75;;
13847;SDS011;6994;49.752;6.094;2024-01-30T00:23:19;23.38;;;15.80;;
13847;SDS011;6994;49.752;6.094;2024-01-30T00:25:47;35.35;;;14.70;;
13847;SDS011;6994;49.752;6.094;2024-01-30T00:28:14;34.95;;;22.58;;
13847;SDS011;6994;49.752;6.094;2024-01-30T00:30:41;30.00;;;19.25;;
13847;SDS011;6994;49.752;6.094;2024-01-30T00:33:09;30.60;;;17.05;;
13847;SDS011;6994;49.752;6.094;2024-01-30T00:35:37;29.85;;;16.62;;
13847;SDS011;6994;49.752;6.094;2024-01-30T00:38:04;19.45;;;14.13;;
13847;SDS011;6994;49.752;6.094;2024-01-30T00:40:31;21.35;;;14.30;;
13847;SDS011;6994;49.752;6.094;2024-01-30T00:42:58;23.40;;;15.13;;
13847;SDS011;6994;49.752;6.094;2024-01-30T00:45:26;22.40;;;15.23;;
13847;SDS011;6994;49.752;6.094;2024-01-30T00:47:53;25.30;;;17.30;;
13847;SDS011;6994;49.752;6.094;2024-01-30T00:50:20;28.87;;;15.82;;
13847;SDS011;6994;49.752;6.094;2024-01-30T00:52:47;32.03;;;14.80;;
13847;SDS011;6994;49.752;6.094;2024-01-30T00:55:15;21.87;;;13.15;;
13847;SDS011;6994;49.752;6.094;2024-01-30T00:57:43;22.30;;;13.73;;
13847;SDS011;6994;49.752;6.094;2024-01-30T01:00:10;24.42;;;13.27;;
13847;SDS011;6994;49.752;6.094;2024-01-30T01:02:38;33.97;;;17.15;;
13847;SDS011;6994;49.752;6.094;2024-01-30T01:05:06;30.35;;;13.80;;
13847;SDS011;6994;49.752;6.094;2024-01-30T01:07:33;34.03;;;19.03;;
13847;SDS011;6994;49.752;6.094;2024-01-30T01:10:00;33.83;;;14.10;;
13847;SDS011;6994;49.752;6.094;2024-01-30T01:12:27;25.58;;;14.02;;
13847;SDS011;6994;49.752;6.094;2024-01-30T01:14:55;28.60;;;14.55;;
13847;SDS011;6994;49.752;6.094;2024-01-30T01:17:22;27.02;;;14.32;;
13847;SDS011;6994;49.752;6.094;2024-01-30T01:19:49;40.22;;;19.90;;
13847;SDS011;6994;49.752;6.094;2024-01-30T01:22:16;35.05;;;19.73;;
13847;SDS011;6994;49.752;6.094;2024-01-30T01:24:43;52.10;;;17.12;;
13847;SDS011;6994;49.752;6.094;2024-01-30T01:27:11;44.95;;;15.73;;
13847;SDS011;6994;49.752;6.094;2024-01-30T01:29:39;39.50;;;13.50;;
13847;SDS011;6994;49.752;6.094;2024-01-30T01:32:07;31.42;;;13.52;;
13847;SDS011;6994;49.752;6.094;2024-01-30T01:34:35;26.50;;;12.73;;
13847;SDS011;6994;49.752;6.094;2024-01-30T01:37:02;35.63;;;13.90;;
13847;SDS011;6994;49.752;6.094;2024-01-30T01:39:29;46.30;;;19.07;;
13847;SDS011;6994;49.752;6.094;2024-01-30T01:41:56;39.50;;;16.20;;
13847;SDS011;6994;49.752;6.094;2024-01-30T01:44:23;55.30;;;21.05;;
13847;SDS011;6994;49.752;6.094;2024-01-30T01:46:51;40.08;;;16.33;;
13847;SDS011;6994;49.752;6.094;2024-01-30T01:49:18;29.45;;;14.48;;
13847;SDS011;6994;49.752;6.094;2024-01-30T01:51:46;25.37;;;12.57;;
13847;SDS011;6994;49.752;6.094;2024-01-30T01:54:14;25.40;;;13.88;;
13847;SDS011;6994;49.752;6.094;2024-01-30T01:56:42;27.45;;;12.57;;
13847;SDS011;6994;49.752;6.094;2024-01-30T01:59:09;27.33;;;13.50;;
13847;SDS011;6994;49.752;6.094;2024-01-30T02:01:36;16.98;;;9.95;;
13847;SDS011;6994;49.752;6.094;2024-01-30T02:04:04;17.42;;;10.48;;
13847;SDS011;6994;49.752;6.094;2024-01-30T02:06:31;17.62;;;9.98;;
13847;SDS011;6994;49.752;6.094;2024-01-30T02:08:58;23.98;;;12.02;;
13847;SDS011;6994;49.752;6.094;2024-01-30T02:11:25;18.70;;;11.40;;
13847;SDS011;6994;49.752;6.094;2024-01-30T02:13:52;19.77;;;11.35;;
13847;SDS011;6994;49.752;6.094;2024-01-30T02:16:19;28.27;;;11.88;;
13847;SDS011;6994;49.752;6.094;2024-01-30T02:18:47;20.50;;;12.40;;
13847;SDS011;6994;49.752;6.094;2024-01-30T02:21:18;28.27;;;14.48;;
13847;SDS011;6994;49.752;6.094;2024-01-30T02:23:43;31.55;;;14.85;;
13847;SDS011;6994;49.752;6.094;2024-01-30T02:26:09;27.60;;;13.38;;
13847;SDS011;6994;49.752;6.094;2024-01-30T02:28:36;26.12;;;14.35;;
13847;SDS011;6994;49.752;6.094;2024-01-30T02:31:04;28.92;;;14.63;;
13847;SDS011;6994;49.752;6.094;2024-01-30T02:33:31;66.85;;;24.67;;
13847;SDS011;6994;49.752;6.094;2024-01-30T02:35:58;39.20;;;16.58;;
13847;SDS011;6994;49.752;6.094;2024-01-30T02:38:25;33.28;;;15.77;;
13847;SDS011;6994;49.752;6.094;2024-01-30T02:40:53;30.20;;;14.65;;
13847;SDS011;6994;49.752;6.094;2024-01-30T02:43:20;33.22;;;15.45;;
13847;SDS011;6994;49.752;6.094;2024-01-30T02:45:47;24.10;;;12.82;;
13847;SDS011;6994;49.752;6.094;2024-01-30T02:48:15;45.50;;;20.17;;
13847;SDS011;6994;49.752;6.094;2024-01-30T02:50:42;28.80;;;14.35;;
13847;SDS011;6994;49.752;6.094;2024-01-30T02:53:09;17.92;;;11.52;;
13847;SDS011;6994;49.752;6.094;2024-01-30T02:55:36;23.12;;;11.15;;
13847;SDS011;6994;49.752;6.094;2024-01-30T02:58:03;21.33;;;10.57;;
13847;SDS011;6994;49.752;6.094;2024-01-30T03:00:31;22.70;;;11.18;;
13847;SDS011;6994;49.752;6.094;2024-01-30T03:02:58;20.95;;;12.07;;
13847;SDS011;6994;49.752;6.094;2024-01-30T03:05:26;22.77;;;12.43;;
13847;SDS011;6994;49.752;6.094;2024-01-30T03:07:54;27.67;;;12.07;;
13847;SDS011;6994;49.752;6.094;2024-01-30T03:10:21;32.78;;;13.38;;
13847;SDS011;6994;49.752;6.094;2024-01-30T03:12:48;33.25;;;12.98;;
13847;SDS011;6994;49.752;6.094;2024-01-30T03:15:15;37.47;;;19.33;;
13847;SDS011;6994;49.752;6.094;2024-01-30T03:17:43;33.25;;;15.85;;
13847;SDS011;6994;49.752;6.094;2024-01-30T03:20:10;28.02;;;13.90;;
13847;SDS011;6994;49.752;6.094;2024-01-30T03:22:37;28.67;;;13.15;;
13847;SDS011;6994;49.752;6.094;2024-01-30T03:25:04;35.90;;;14.07;;
13847;SDS011;6994;49.752;6.094;2024-01-30T03:27:32;35.28;;;18.00;;
13847;SDS011;6994;49.752;6.094;2024-01-30T03:29:59;25.85;;;13.52;;
13847;SDS011;6994;49.752;6.094;2024-01-30T03:32:26;32.83;;;13.57;;
13847;SDS011;6994;49.752;6.094;2024-01-30T03:34:53;21.25;;;13.00;;
13847;SDS011;6994;49.752;6.094;2024-01-30T03:37:20;25.95;;;12.15;;
13847;SDS011;6994;49.752;6.094;2024-01-30T03:39:48;27.87;;;12.80;;
13847;SDS011;6994;49.752;6.094;2024-01-30T03:42:15;36.75;;;12.45;;
13847;SDS011;6994;49.752;6.094;2024-01-30T03:44:42;18.50;;;11.95;;
13847;SDS011;6994;49.752;6.094;2024-01-30T03:47:09;29.23;;;11.20;;
13847;SDS011;6994;49.752;6.094;2024-01-30T03:49:36;24.87;;;16.05;;
13847;SDS011;6994;49.752;6.094;2024-01-30T03:52:04;23.45;;;12.43;;
13847;SDS011;6994;49.752;6.094;2024-01-30T03:54:31;15.68;;;10.90;;
13847;SDS011;6994;49.752;6.094;2024-01-30T03:56:58;21.92;;;11.98;;
13847;SDS011;6994;49.752;6.094;2024-01-30T03:59:25;20.58;;;11.63;;
13847;SDS011;6994;49.752;6.094;2024-01-30T04:01:52;16.70;;;11.00;;
13847;SDS011;6994;49.752;6.094;2024-01-30T04:04:20;18.70;;;11.80;;
13847;SDS011;6994;49.752;6.094;2024-01-30T04:06:47;26.08;;;19.00;;
13847;SDS011;6994;49.752;6.094;2024-01-30T04:09:14;26.95;;;15.55;;
13847;SDS011;6994;49.752;6.094;2024-01-30T04:11:41;23.40;;;13.73;;
13847;SDS011;6994;49.752;6.094;2024-01-30T04:14:08;24.10;;;14.20;;
13847;SDS011;6994;49.752;6.094;2024-01-30T04:16:36;21.25;;;13.52;;
13847;SDS011;6994;49.752;6.094;2024-01-30T04:19:03;15.90;;;12.90;;
13847;SDS011;6994;49.752;6.094;2024-01-30T04:21:30;24.65;;;12.73;;
13847;SDS011;6994;49.752;6.094;2024-01-30T04:23:57;34.70;;;13.27;;
13847;SDS011;6994;49.752;6.094;2024-01-30T04:26:25;22.02;;;13.23;;
13847;SDS011;6994;49.752;6.094;2024-01-30T04:28:52;26.23;;;14.60;;
13847;SDS011;6994;49.752;6.094;2024-01-30T04:31:19;25.27;;;13.77;;
13847;SDS011;6994;49.752;6.094;2024-01-30T04:33:46;23.15;;;12.27;;
13847;SDS011;6994;49.752;6.094;2024-01-30T04:36:13;22.58;;;12.05;;
13847;SDS011;6994;49.752;6.094;2024-01-30T04:38:41;14.40;;;10.68;;
13847;SDS011;6994;49.752;6.094;2024-01-30T04:41:08;37.90;;;18.90;;
13847;SDS011;6994;49.752;6.094;2024-01-30T04:43:35;26.67;;;13.88;;
13847;SDS011;6994;49.752;6.094;2024-01-30T04:46:02;32.42;;;16.65;;
13847;SDS011;6994;49.752;6.094;2024-01-30T04:48:29;26.33;;;14.93;;
13847;SDS011;6994;49.752;6.094;2024-01-30T04:50:57;17.83;;;12.55;;
13847;SDS011;6994;49.752;6.094;2024-01-30T04:53:25;21.45;;;13.13;;
13847;SDS011;6994;49.752;6.094;2024-01-30T04:55:52;25.85;;;12.88;;
13847;SDS011;6994;49.752;6.094;2024-01-30T04:58:19;21.52;;;12.37;;
13847;SDS011;6994;49.752;6.094;2024-01-30T05:00:46;27.87;;;12.85;;
13847;SDS011;6994;49.752;6.094;2024-01-30T05:03:13;20.65;;;12.18;;
13847;SDS011;6994;49.752;6.094;2024-01-30T05:05:41;35.15;;;20.80;;
13847;SDS011;6994;49.752;6.094;2024-01-30T05:08:08;25.92;;;17.90;;
13847;SDS011;6994;49.752;6.094;2024-01-30T05:10:37;33.65;;;15.63;;
13847;SDS011;6994;49.752;6.094;2024-01-30T05:13:05;28.27;;;18.92;;
13847;SDS011;6994;49.752;6.094;2024-01-30T05:15:33;29.48;;;17.15;;
13847;SDS011;6994;49.752;6.094;2024-01-30T05:18:00;27.80;;;16.25;;
13847;SDS011;6994;49.752;6.094;2024-01-30T05:20:27;28.85;;;15.95;;
13847;SDS011;6994;49.752;6.094;2024-01-30T05:22:54;27.30;;;15.98;;
13847;SDS011;6994;49.752;6.094;2024-01-30T05:25:21;31.48;;;18.12;;
13847;SDS011;6994;49.752;6.094;2024-01-30T05:27:49;26.87;;;16.62;;
13847;SDS011;6994;49.752;6.094;2024-01-30T05:30:16;30.02;;;17.37;;
13847;SDS011;6994;49.752;6.094;2024-01-30T05:32:43;33.83;;;17.05;;
13847;SDS011;6994;49.752;6.094;2024-01-30T05:35:10;26.70;;;16.90;;
13847;SDS011;6994;49.752;6.094;2024-01-30T05:37:38;31.87;;;17.30;;
13847;SDS011;6994;49.752;6.094;2024-01-30T05:40:05;32.45;;;16.58;;
13847;SDS011;6994;49.752;6.094;2024-01-30T05:42:32;31.52;;;17.30;;
13847;SDS011;6994;49.752;6.094;2024-01-30T05:44:59;26.25;;;18.10;;
13847;SDS011;6994;49.752;6.094;2024-01-30T05:47:27;37.65;;;18.25;;
13847;SDS011;6994;49.752;6.094;2024-01-30T05:49:54;32.35;;;18.20;;
13847;SDS011;6994;49.752;6.094;2024-01-30T05:52:21;31.25;;;17.17;;
13847;SDS011;6994;49.752;6.094;2024-01-30T05:54:48;28.52;;;17.48;;
13847;SDS011;6994;49.752;6.094;2024-01-30T05:57:15;34.67;;;18.77;;
13847;SDS011;6994;49.752;6.094;2024-01-30T05:59:44;30.17;;;16.92;;
13847;SDS011;6994;49.752;6.094;2024-01-30T06:02:11;31.50;;;17.87;;
13847;SDS011;6994;49.752;6.094;2024-01-30T06:04:38;27.23;;;16.98;;
13847;SDS011;6994;49.752;6.094;2024-01-30T06:07:05;40.25;;;25.10;;
13847;SDS011;6994;49.752;6.094;2024-01-30T06:09:32;34.97;;;20.70;;
13847;SDS011;6994;49.752;6.094;2024-01-30T06:11:59;21.42;;;15.15;;
13847;SDS011;6994;49.752;6.094;2024-01-30T06:14:27;31.73;;;15.65;;
13847;SDS011;6994;49.752;6.094;2024-01-30T06:16:55;23.55;;;14.60;;
13847;SDS011;6994;49.752;6.094;2024-01-30T06:19:23;28.87;;;14.82;;
13847;SDS011;6994;49.752;6.094;2024-01-30T06:21:51;22.33;;;14.73;;
13847;SDS011;6994;49.752;6.094;2024-01-30T06:24:18;28.98;;;15.80;;
13847;SDS011;6994;49.752;6.094;2024-01-30T06:26:46;25.62;;;15.20;;
13847;SDS011;6994;49.752;6.094;2024-01-30T06:29:13;31.27;;;22.70;;
13847;SDS011;6994;49.752;6.094;2024-01-30T06:31:40;28.70;;;17.17;;
13847;SDS011;6994;49.752;6.094;2024-01-30T06:34:08;24.67;;;15.90;;
13847;SDS011;6994;49.752;6.094;2024-01-30T06:36:35;24.12;;;14.60;;
13847;SDS011;6994;49.752;6.094;2024-01-30T06:39:02;27.50;;;15.10;;
13847;SDS011;6994;49.752;6.094;2024-01-30T06:41:30;26.67;;;14.52;;
13847;SDS011;6994;49.752;6.094;2024-01-30T06:43:57;27.08;;;16.95;;
13847;SDS011;6994;49.752;6.094;2024-01-30T06:46:24;31.33;;;15.75;;
13847;SDS011;6994;49.752;6.094;2024-01-30T06:48:51;29.42;;;14.43;;
13847;SDS011;6994;49.752;6.094;2024-01-30T06:51:19;29.52;;;14.60;;
13847;SDS011;6994;49.752;6.094;2024-01-30T06:53:46;27.23;;;14.63;;
13847;SDS011;6994;49.752;6.094;2024-01-30T06:56:13;27.62;;;14.63;;
13847;SDS011;6994;49.752;6.094;2024-01-30T06:58:40;23.48;;;14.45;;
13847;SDS011;6994;49.752;6.094;2024-01-30T07:01:08;22.33;;;14.15;;
13847;SDS011;6994;49.752;6.094;2024-01-30T07:03:35;25.88;;;15.35;;
13847;SDS011;6994;49.752;6.094;2024-01-30T07:06:03;23.05;;;15.30;;
13847;SDS011;6994;49.752;6.094;2024-01-30T07:08:30;22.42;;;14.15;;
13847;SDS011;6994;49.752;6.094;2024-01-30T07:10:57;40.38;;;14.75;;
13847;SDS011;6994;49.752;6.094;2024-01-30T07:13:24;36.40;;;15.23;;
13847;SDS011;6994;49.752;6.094;2024-01-30T07:15:51;35.03;;;16.08;;
13847;SDS011;6994;49.752;6.094;2024-01-30T07:18:19;41.53;;;28.95;;
13847;SDS011;6994;49.752;6.094;2024-01-30T07:20:46;30.37;;;18.48;;
13847;SDS011;6994;49.752;6.094;2024-01-30T07:23:13;28.45;;;15.65;;
13847;SDS011;6994;49.752;6.094;2024-01-30T07:25:40;32.60;;;15.57;;
13847;SDS011;6994;49.752;6.094;2024-01-30T07:28:08;22.13;;;14.35;;
13847;SDS011;6994;49.752;6.094;2024-01-30T07:30:37;27.08;;;16.85;;
13847;SDS011;6994;49.752;6.094;2024-01-30T07:33:04;24.42;;;15.23;;
13847;SDS011;6994;49.752;6.094;2024-01-30T07:35:32;23.62;;;15.25;;
13847;SDS011;6994;49.752;6.094;2024-01-30T07:38:00;27.67;;;15.70;;
13847;SDS011;6994;49.752;6.094;2024-01-30T07:40:28;31.98;;;21.45;;
13847;SDS011;6994;49.752;6.094;2024-01-30T07:42:55;26.70;;;18.23;;
13847;SDS011;6994;49.752;6.094;2024-01-30T07:45:22;26.85;;;17.00;;
13847;SDS011;6994;49.752;6.094;2024-01-30T07:47:49;23.95;;;15.07;;
13847;SDS011;6994;49.752;6.094;2024-01-30T07:50:16;25.95;;;15.02;;
13847;SDS011;6994;49.752;6.094;2024-01-30T07:52:44;51.30;;;20.70;;
13847;SDS011;6994;49.752;6.094;2024-01-30T07:55:11;24.67;;;16.05;;
13847;SDS011;6994;49.752;6.094;2024-01-30T07:57:38;24.73;;;14.70;;
13847;SDS011;6994;49.752;6.094;2024-01-30T08:00:06;18.10;;;14.20;;
13847;SDS011;6994;49.752;6.094;2024-01-30T08:02:33;25.98;;;16.15;;
13847;SDS011;6994;49.752;6.094;2024-01-30T08:05:00;24.90;;;15.63;;
13847;SDS011;6994;49.752;6.094;2024-01-30T08:07:28;24.83;;;14.02;;
13847;SDS011;6994;49.752;6.094;2024-01-30T08:09:55;20.73;;;13.30;;
13847;SDS011;6994;49.752;6.094;2024-01-30T08:12:22;22.80;;;14.40;;
13847;SDS011;6994;49.752;6.094;2024-01-30T08:14:49;23.25;;;14.80;;
13847;SDS011;6994;49.752;6.094;2024-01-30T08:17:16;28.58;;;15.57;;
13847;SDS011;6994;49.752;6.094;2024-01-30T08:19:44;27.10;;;19.70;;
13847;SDS011;6994;49.752;6.094;2024-01-30T08:22:11;24.80;;;16.05;;
13847;SDS011;6994;49.752;6.094;2024-01-30T08:24:38;24.55;;;15.20;;
13847;SDS011;6994;49.752;6.094;2024-01-30T08:27:06;23.62;;;15.20;;
13847;SDS011;6994;49.752;6.094;2024-01-30T08:29:34;23.10;;;15.18;;
13847;SDS011;6994;49.752;6.094;2024-01-30T08:32:02;21.23;;;13.82;;
13847;SDS011;6994;49.752;6.094;2024-01-30T08:34:29;23.77;;;15.55;;
13847;SDS011;6994;49.752;6.094;2024-01-30T08:36:56;19.70;;;13.90;;
13847;SDS011;6994;49.752;6.094;2024-01-30T08:39:24;24.30;;;19.65;;
13847;SDS011;6994;49.752;6.094;2024-01-30T08:41:51;22.58;;;16.42;;
13847;SDS011;6994;49.752;6.094;2024-01-30T08:44:18;21.83;;;14.82;;
13847;SDS011;6994;49.752;6.094;2024-01-30T08:46:45;21.17;;;14.45;;
13847;SDS011;6994;49.752;6.094;2024-01-30T08:49:13;19.05;;;13.65;;
13847;SDS011;6994;49.752;6.094;2024-01-30T08:51:40;21.87;;;14.43;;
13847;SDS011;6994;49.752;6.094;2024-01-30T08:54:08;22.02;;;14.32;;
13847;SDS011;6994;49.752;6.094;2024-01-30T08:56:36;20.37;;;14.80;;
13847;SDS011;6994;49.752;6.094;2024-01-30T08:59:04;18.35;;;13.52;;
13847;SDS011;6994;49.752;6.094;2024-01-30T09:01:31;24.12;;;14.30;;
13847;SDS011;6994;49.752;6.094;2024-01-30T09:03:59;17.23;;;15.43;;
13847;SDS011;6994;49.752;6.094;2024-01-30T09:06:26;14.80;;;13.00;;
13847;SDS011;6994;49.752;6.094;2024-01-30T09:08:53;16.58;;;14.50;;
13847;SDS011;6994;49.752;6.094;2024-01-30T09:11:20;12.37;;;11.07;;
13847;SDS011;6994;49.752;6.094;2024-01-30T09:13:48;14.15;;;11.80;;
13847;SDS011;6994;49.752;6.094;2024-01-30T09:16:15;13.80;;;11.82;;
13847;SDS011;6994;49.752;6.094;2024-01-30T09:18:43;13.55;;;11.88;;
13847;SDS011;6994;49.752;6.094;2024-01-30T09:21:11;14.85;;;13.40;;
13847;SDS011;6994;49.752;6.094;2024-01-30T09:23:38;12.37;;;11.10;;
13847;SDS011;6994;49.752;6.094;2024-01-30T09:26:05;12.00;;;9.82;;
13847;SDS011;6994;49.752;6.094;2024-01-30T09:28:32;13.25;;;11.95;;
13847;SDS011;6994;49.752;6.094;2024-01-30T09:31:00;11.10;;;10.00;;
13847;SDS011;6994;49.752;6.094;2024-01-30T09:33:27;14.55;;;12.65;;
13847;SDS011;6994;49.752;6.094;2024-01-30T09:35:54;11.55;;;10.35;;
13847;SDS011;6994;49.752;6.094;2024-01-30T09:38:21;12.85;;;11.12;;
13847;SDS011;6994;49.752;6.094;2024-01-30T09:40:50;11.88;;;10.63;;
13847;SDS011;6994;49.752;6.094;2024-01-30T09:43:16;11.73;;;9.95;;
13847;SDS011;6994;49.752;6.094;2024-01-30T09:45:43;16.40;;;12.48;;
13847;SDS011;6994;49.752;6.094;2024-01-30T09:48:10;14.00;;;11.23;;
13847;SDS011;6994;49.752;6.094;2024-01-30T09:50:37;10.70;;;9.60;;
13847;SDS011;6994;49.752;6.094;2024-01-30T09:53:04;10.52;;;8.57;;
13847;SDS011;6994;49.752;6.094;2024-01-30T09:55:32;11.57;;;9.35;;
13847;SDS011;6994;49.752;6.094;2024-01-30T09:57:59;9.93;;;8.95;;
13847;SDS011;6994;49.752;6.094;2024-01-30T10:00:26;12.27;;;10.98;;
13847;SDS011;6994;49.752;6.094;2024-01-30T10:02:53;10.88;;;9.70;;
13847;SDS011;6994;49.752;6.094;2024-01-30T10:05:20;11.65;;;10.55;;
13847;SDS011;6994;49.752;6.094;2024-01-30T10:07:54;11.02;;;9.90;;
13847;SDS011;6994;49.752;6.094;2024-01-30T10:10:23;10.77;;;8.88;;
13847;SDS011;6994;49.752;6.094;2024-01-30T10:12:51;10.65;;;9.55;;
13847;SDS011;6994;49.752;6.094;2024-01-30T10:15:19;10.27;;;9.27;;
13847;SDS011;6994;49.752;6.094;2024-01-30T10:17:47;10.52;;;9.35;;
13847;SDS011;6994;49.752;6.094;2024-01-30T10:20:15;10.50;;;9.40;;
13847;SDS011;6994;49.752;6.094;2024-01-30T10:22:43;10.23;;;9.20;;
13847;SDS011;6994;49.752;6.094;2024-01-30T10:25:11;12.25;;;11.05;;
13847;SDS011;6994;49.752;6.094;2024-01-30T10:27:42;9.45;;;8.45;;
13847;SDS011;6994;49.752;6.094;2024-01-30T10:30:09;10.88;;;9.60;;
13847;SDS011;6994;49.752;6.094;2024-01-30T10:32:36;10.88;;;9.65;;
13847;SDS011;6994;49.752;6.094;2024-01-30T10:35:03;11.23;;;9.18;;
13847;SDS011;6994;49.752;6.094;2024-01-30T10:37:30;9.35;;;8.40;;
13847;SDS011;6994;49.752;6.094;2024-01-30T10:39:58;8.77;;;7.97;;
13847;SDS011;6994;49.752;6.094;2024-01-30T10:42:25;9.20;;;8.27;;
13847;SDS011;6994;49.752;6.094;2024-01-30T10:47:28;9.27;;;8.35;;
13847;SDS011;6994;49.752;6.094;2024-01-30T10:49:56;8.13;;;7.32;;
13847;SDS011;6994;49.752;6.094;2024-01-30T10:52:23;11.15;;;10.05;;
13847;SDS011;6994;49.752;6.094;2024-01-30T10:54:50;9.10;;;8.20;;
13847;SDS011;6994;49.752;6.094;2024-01-30T10:57:17;11.80;;;10.50;;
13847;SDS011;6994;49.752;6.094;2024-01-30T10:59:44;10.02;;;9.07;;
13847;SDS011;6994;49.752;6.094;2024-01-30T11:02:12;12.15;;;9.05;;
13847;SDS011;6994;49.752;6.094;2024-01-30T11:04:45;9.77;;;8.85;;
13847;SDS011;6994;49.752;6.094;2024-01-30T11:07:18;9.48;;;8.50;;
13847;SDS011;6994;49.752;6.094;2024-01-30T11:09:51;13.05;;;9.95;;
13847;SDS011;6994;49.752;6.094;2024-01-30T11:12:28;10.50;;;9.48;;
13847;SDS011;6994;49.752;6.094;2024-01-30T11:15:08;8.93;;;8.05;;
13847;SDS011;6994;49.752;6.094;2024-01-30T11:20:18;9.45;;;8.50;;
13847;SDS011;6994;49.752;6.094;2024-01-30T11:22:46;10.25;;;9.20;;
13847;SDS011;6994;49.752;6.094;2024-01-30T11:25:17;10.60;;;7.90;;
13847;SDS011;6994;49.752;6.094;2024-01-30T11:27:43;9.90;;;8.43;;
13847;SDS011;6994;49.752;6.094;2024-01-30T11:30:21;10.65;;;9.00;;
13847;SDS011;6994;49.752;6.094;2024-01-30T11:32:57;9.23;;;8.32;;
13847;SDS011;6994;49.752;6.094;2024-01-30T11:35:14;10.40;;;8.60;;
13847;SDS011;6994;49.752;6.094;2024-01-30T11:37:42;10.73;;;9.75;;
13847;SDS011;6994;49.752;6.094;2024-01-30T11:40:09;9.52;;;8.52;;
13847;SDS011;6994;49.752;6.094;2024-01-30T11:42:36;9.32;;;8.40;;
13847;SDS011;6994;49.752;6.094;2024-01-30T11:45:03;9.63;;;8.68;;
13847;SDS011;6994;49.752;6.094;2024-01-30T11:47:31;8.35;;;7.47;;
13847;SDS011;6994;49.752;6.094;2024-01-30T11:49:58;7.90;;;7.10;;
13847;SDS011;6994;49.752;6.094;2024-01-30T11:52:25;10.77;;;9.15;;
13847;SDS011;6994;49.752;6.094;2024-01-30T11:54:52;10.70;;;7.15;;
13847;SDS011;6994;49.752;6.094;2024-01-30T11:57:19;9.13;;;8.23;;
13847;SDS011;6994;49.752;6.094;2024-01-30T11:59:47;9.82;;;7.45;;
13847;SDS011;6994;49.752;6.094;2024-01-30T12:02:17;8.98;;;7.72;;
13847;SDS011;6994;49.752;6.094;2024-01-30T12:04:44;11.75;;;7.70;;
13847;SDS011;6994;49.752;6.094;2024-01-30T12:07:11;9.88;;;8.00;;
13847;SDS011;6994;49.752;6.094;2024-01-30T12:09:38;10.05;;;8.18;;
13847;SDS011;6994;49.752;6.094;2024-01-30T12:12:06;10.77;;;8.88;;
13847;SDS011;6994;49.752;6.094;2024-01-30T12:14:33;10.25;;;8.00;;
13847;SDS011;6994;49.752;6.094;2024-01-30T12:17:01;9.88;;;8.65;;
13847;SDS011;6994;49.752;6.094;2024-01-30T12:19:28;9.07;;;7.95;;
13847;SDS011;6994;49.752;6.094;2024-01-30T12:21:58;10.10;;;9.10;;
13847;SDS011;6994;49.752;6.094;2024-01-30T12:24:28;12.65;;;10.23;;
13847;SDS011;6994;49.752;6.094;2024-01-30T12:26:58;16.97;;;12.43;;
13847;SDS011;6994;49.752;6.094;2024-01-30T12:29:25;13.60;;;10.77;;
13847;SDS011;6994;49.752;6.094;2024-01-30T12:31:55;12.18;;;8.75;;
13847;SDS011;6994;49.752;6.094;2024-01-30T12:34:24;11.70;;;9.40;;
13847;SDS011;6994;49.752;6.094;2024-01-30T12:36:51;9.23;;;8.15;;
13847;SDS011;6994;49.752;6.094;2024-01-30T12:39:18;11.85;;;7.68;;
13847;SDS011;6994;49.752;6.094;2024-01-30T12:41:45;10.48;;;8.68;;
13847;SDS011;6994;49.752;6.094;2024-01-30T12:44:13;10.70;;;9.48;;
13847;SDS011;6994;49.752;6.094;2024-01-30T12:46:40;11.60;;;9.70;;
13847;SDS011;6994;49.752;6.094;2024-01-30T12:49:07;13.93;;;8.85;;
13847;SDS011;6994;49.752;6.094;2024-01-30T12:51:34;10.32;;;8.50;;
13847;SDS011;6994;49.752;6.094;2024-01-30T12:54:04;9.43;;;7.90;;
13847;SDS011;6994;49.752;6.094;2024-01-30T12:56:28;12.13;;;10.52;;
13847;SDS011;6994;49.752;6.094;2024-01-30T12:58:56;12.98;;;11.12;;
13847;SDS011;6994;49.752;6.094;2024-01-30T13:01:23;10.10;;;8.77;;
13847;SDS011;6994;49.752;6.094;2024-01-30T13:03:50;11.45;;;9.00;;
13847;SDS011;6994;49.752;6.094;2024-01-30T13:06:17;11.27;;;10.13;;
13847;SDS011;6994;49.752;6.094;2024-01-30T13:08:45;10.88;;;8.70;;
13847;SDS011;6994;49.752;6.094;2024-01-30T13:11:12;10.30;;;8.40;;
13847;SDS011;6994;49.752;6.094;2024-01-30T13:13:39;10.85;;;9.30;;
13847;SDS011;6994;49.752;6.094;2024-01-30T13:16:06;13.68;;;8.05;;
13847;SDS011;6994;49.752;6.094;2024-01-30T13:18:33;10.18;;;6.47;;
13847;SDS011;6994;49.752;6.094;2024-01-30T13:21:01;10.57;;;8.05;;
13847;SDS011;6994;49.752;6.094;2024-01-30T13:23:28;6.87;;;5.93;;
13847;SDS011;6994;49.752;6.094;2024-01-30T13:25:56;7.12;;;5.75;;
13847;SDS011;6994;49.752;6.094;2024-01-30T13:28:23;11.93;;;6.43;;
13847;SDS011;6994;49.752;6.094;2024-01-30T13:30:50;9.00;;;6.70;;
13847;SDS011;6994;49.752;6.094;2024-01-30T13:33:17;10.18;;;6.50;;
13847;SDS011;6994;49.752;6.094;2024-01-30T13:35:45;6.50;;;5.85;;
13847;SDS011;6994;49.752;6.094;2024-01-30T13:38:12;9.80;;;6.12;;
13847;SDS011;6994;49.752;6.094;2024-01-30T13:40:39;8.70;;;5.50;;
13847;SDS011;6994;49.752;6.094;2024-01-30T13:43:06;7.55;;;5.97;;
13847;SDS011;6994;49.752;6.094;2024-01-30T13:45:33;9.68;;;6.10;;
13847;SDS011;6994;49.752;6.094;2024-01-30T13:48:01;9.30;;;6.53;;
13847;SDS011;6994;49.752;6.094;2024-01-30T13:50:29;10.43;;;5.80;;
13847;SDS011;6994;49.752;6.094;2024-01-30T13:52:56;5.90;;;5.07;;
13847;SDS011;6994;49.752;6.094;2024-01-30T13:55:23;9.40;;;6.18;;
13847;SDS011;6994;49.752;6.094;2024-01-30T13:57:50;8.43;;;5.60;;
13847;SDS011;6994;49.752;6.094;2024-01-30T14:00:17;8.20;;;5.55;;
13847;SDS011;6994;49.752;6.094;2024-01-30T14:02:45;6.68;;;5.00;;
13847;SDS011;6994;49.752;6.094;2024-01-30T14:05:12;6.00;;;4.47;;
13847;SDS011;6994;49.752;6.094;2024-01-30T14:07:39;14.95;;;5.07;;
13847;SDS011;6994;49.752;6.094;2024-01-30T14:10:06;9.48;;;4.65;;
13847;SDS011;6994;49.752;6.094;2024-01-30T14:12:33;6.22;;;4.80;;
13847;SDS011;6994;49.752;6.094;2024-01-30T14:15:01;7.93;;;4.70;;
13847;SDS011;6994;49.752;6.094;2024-01-30T14:17:28;6.60;;;4.45;;
13847;SDS011;6994;49.752;6.094;2024-01-30T14:19:56;7.82;;;4.97;;
13847;SDS011;6994;49.752;6.094;2024-01-30T14:22:23;5.72;;;4.43;;
13847;SDS011;6994;49.752;6.094;2024-01-30T14:24:50;6.12;;;5.28;;
13847;SDS011;6994;49.752;6.094;2024-01-30T14:27:17;8.80;;;5.28;;
13847;SDS011;6994;49.752;6.094;2024-01-30T14:29:45;8.35;;;4.62;;
13847;SDS011;6994;49.752;6.094;2024-01-30T14:32:12;5.82;;;3.78;;
13847;SDS011;6994;49.752;6.094;2024-01-30T14:34:39;6.82;;;4.45;;
13847;SDS011;6994;49.752;6.094;2024-01-30T14:37:06;7.95;;;5.65;;
13847;SDS011;6994;49.752;6.094;2024-01-30T14:39:33;9.65;;;5.50;;
13847;SDS011;6994;49.752;6.094;2024-01-30T14:42:01;9.50;;;5.07;;
13847;SDS011;6994;49.752;6.094;2024-01-30T14:44:28;5.80;;;4.20;;
13847;SDS011;6994;49.752;6.094;2024-01-30T14:46:55;7.53;;;4.65;;